D Hanis, Texas
Current Conditions -  °F | °C
As of 7:33 AM on Friday 28 Nov 2014 (Local Time) from KHDO Reporting Station
Overcast Overcast  
Wind Chill: 50°   Ceiling: 300
Heat Index: 50°   Visibility: 8mi
Dew Point: 47°   Wind: 0mph
Humidity: 89%   Direction: NA
Pressure: 30.34"   Gusts: NA
Location:  29.3507°N, 99.3117°W
Report Text: KHDO 281333Z AUTO 00000KT 8SM OVC003 10/08 A3034 RMK AO2 CIG 003V006 T01000083
Loading
Personal Weather Stations






























Interactive Weather Map New forecast layout! Learn more

10-Day Weather Forecast

Advertisements
Track Severe Weather on mobile